Time;durP1;ratioP1;P1;durP2;ratioP2;P2;SDS_P1;SDS_P2;PMS_P1;PMS_P2;Temp;Humidity;BMP_temperature;BMP_pressure;BME280_temperature;BME280_humidity;BME280_pressure;Samples;Min_cycle;Max_cycle;Signal;HPM_P1;HPM_P2
2023/07/12 00:00:52;;;;;;;2.15;1.23;;;18.10;99.90;;;;;;5087785;28;20093;-79
2023/07/12 00:03:18;;;;;;;1.73;1.10;;;18.10;99.90;;;;;;5083100;28;20043;-80
2023/07/12 00:05:45;;;;;;;3.03;1.48;;;18.00;99.90;;;;;;5091267;28;20494;-80
2023/07/12 00:08:28;;;;;;;1.88;1.00;;;17.90;99.90;;;;;;5085696;28;20035;-81
2023/07/12 00:10:56;;;;;;;2.83;1.20;;;17.80;99.90;;;;;;5081063;28;20479;-80
2023/07/12 00:13:23;;;;;;;2.60;1.40;;;17.80;99.90;;;;;;5083664;28;20129;-79
2023/07/12 00:15:50;;;;;;;1.90;1.13;;;17.80;99.90;;;;;;5068423;28;20682;-79
2023/07/12 00:18:24;;;;;;;2.55;1.20;;;17.80;99.90;;;;;;5083062;28;20119;-79
2023/07/12 00:20:51;;;;;;;2.08;1.13;;;17.80;99.90;;;;;;5081572;28;20370;-79
2023/07/12 00:23:18;;;;;;;2.97;1.10;;;17.80;99.90;;;;;;5088728;28;20044;-80
2023/07/12 00:25:46;;;;;;;1.90;1.13;;;17.70;99.90;;;;;;5062678;28;20044;-80
2023/07/12 00:28:24;;;;;;;1.92;1.05;;;17.70;99.90;;;;;;5085050;28;20036;-80
2023/07/12 00:30:52;;;;;;;2.70;1.20;;;17.80;99.90;;;;;;5080102;28;20040;-80
2023/07/12 00:33:19;;;;;;;2.60;1.50;;;17.70;99.90;;;;;;5083992;28;20040;-81
2023/07/12 00:35:45;;;;;;;2.10;1.40;;;17.70;99.90;;;;;;5079987;28;20047;-78
2023/07/12 00:38:18;;;;;;;2.25;1.30;;;17.70;99.90;;;;;;5086404;28;20028;-80
2023/07/12 00:40:53;;;;;;;3.13;1.58;;;17.70;99.90;;;;;;5080365;28;20052;-81
2023/07/12 00:44:01;;;;;;;2.53;1.60;;;17.70;99.90;;;;;;5090558;28;20075;-81
2023/07/12 00:46:41;;;;;;;2.53;1.40;;;17.70;99.90;;;;;;5071613;28;20481;-80
2023/07/12 00:49:10;;;;;;;2.17;1.45;;;17.70;99.90;;;;;;5073520;28;20048;-78
2023/07/12 00:51:44;;;;;;;2.72;1.63;;;17.70;99.90;;;;;;5077637;28;20036;-77
2023/07/12 00:54:12;;;;;;;2.50;1.77;;;17.60;99.90;;;;;;5072820;28;20053;-78
2023/07/12 00:56:38;;;;;;;3.45;1.60;;;17.60;99.90;;;;;;5090133;28;20234;-82
2023/07/12 00:59:08;;;;;;;3.17;1.85;;;17.60;99.90;;;;;;5059708;28;20119;-77
2023/07/12 01:01:36;;;;;;;2.65;1.80;;;17.60;99.90;;;;;;5060805;28;20377;-78
2023/07/12 01:04:04;;;;;;;3.05;2.10;;;17.60;99.90;;;;;;5086252;28;20051;-78
2023/07/12 01:06:30;;;;;;;4.15;1.83;;;17.60;99.90;;;;;;5085080;28;20043;-80
2023/07/12 01:09:01;;;;;;;3.58;2.00;;;17.60;99.90;;;;;;5087953;28;20545;-79
2023/07/12 01:11:28;;;;;;;2.90;2.05;;;17.60;99.90;;;;;;5080973;28;20093;-78
2023/07/12 01:13:54;;;;;;;3.20;2.17;;;17.60;99.90;;;;;;5083667;28;20043;-79
2023/07/12 01:16:23;;;;;;;3.35;2.42;;;17.60;99.90;;;;;;5082321;28;20052;-78
2023/07/12 01:18:48;;;;;;;3.47;2.28;;;17.60;99.90;;;;;;5085939;28;20044;-79
2023/07/12 01:21:19;;;;;;;3.80;2.50;;;17.60;99.90;;;;;;5082121;28;20422;-78
2023/07/12 01:23:46;;;;;;;4.95;2.58;;;17.60;99.90;;;;;;5072566;28;20040;-79
2023/07/12 01:26:32;;;;;;;4.50;2.58;;;17.60;99.90;;;;;;5077662;28;20044;-78
2023/07/12 01:28:59;;;;;;;;;;;17.60;99.90;;;;;;5075896;28;20093;-77
2023/07/12 01:31:25;;;;;;;;;;;17.50;99.90;;;;;;5077024;28;20375;-78
2023/07/12 01:33:52;;;;;;;3.53;2.42;;;17.50;99.90;;;;;;5076100;28;20370;-80
2023/07/12 01:36:18;;;;;;;3.45;2.00;;;17.50;99.90;;;;;;5077061;28;20043;-77
2023/07/12 01:38:45;;;;;;;5.05;2.83;;;17.50;99.90;;;;;;5079697;28;20036;-74
2023/07/12 01:41:11;;;;;;;4.30;2.70;;;17.50;99.90;;;;;;5082758;28;20130;-76
2023/07/12 01:43:37;;;;;;;3.47;2.50;;;17.50;99.90;;;;;;5077474;28;20123;-77
2023/07/12 01:46:03;;;;;;;4.25;2.63;;;17.50;99.90;;;;;;5069622;28;20067;-77
2023/07/12 01:48:29;;;;;;;3.60;2.60;;;17.50;99.90;;;;;;5081380;28;20040;-76
2023/07/12 01:50:55;;;;;;;3.30;2.42;;;17.50;99.90;;;;;;5079147;28;20075;-75
2023/07/12 01:53:21;;;;;;;3.55;2.20;;;17.50;99.90;;;;;;5082020;28;20068;-75
2023/07/12 01:55:46;;;;;;;4.20;2.58;;;17.50;99.90;;;;;;5076411;28;20436;-76
2023/07/12 01:58:12;;;;;;;3.60;2.63;;;17.40;99.90;;;;;;5076476;28;20093;-76
2023/07/12 02:00:38;;;;;;;3.55;2.25;;;17.40;99.90;;;;;;5074501;28;20357;-77
2023/07/12 02:03:04;;;;;;;4.45;2.65;;;17.40;99.90;;;;;;5080630;28;20037;-79
2023/07/12 02:05:30;;;;;;;3.30;2.40;;;17.30;99.90;;;;;;5078871;28;20465;-79
2023/07/12 02:07:56;;;;;;;3.70;2.50;;;17.30;99.90;;;;;;5080232;28;20065;-76
2023/07/12 02:10:25;;;;;;;4.10;2.80;;;17.30;99.90;;;;;;5076985;28;20044;-76
2023/07/12 02:12:52;;;;;;;3.38;2.20;;;17.30;99.90;;;;;;5068659;28;20048;-76
2023/07/12 02:15:18;;;;;;;4.00;2.15;;;17.30;99.90;;;;;;5087276;28;20478;-76
2023/07/12 02:17:44;;;;;;;4.57;2.47;;;17.30;99.90;;;;;;5081697;28;20396;-76
2023/07/12 02:20:11;;;;;;;4.20;2.63;;;17.30;99.90;;;;;;5084216;28;20032;-76
2023/07/12 02:22:41;;;;;;;4.50;2.47;;;17.30;99.90;;;;;;5074204;28;20050;-78
2023/07/12 02:25:09;;;;;;;3.28;2.25;;;17.20;99.90;;;;;;5079854;28;20040;-76
2023/07/12 02:27:35;;;;;;;4.75;2.50;;;17.20;99.90;;;;;;5079984;28;20048;-77
2023/07/12 02:30:00;;;;;;;5.03;2.92;;;17.20;99.90;;;;;;5073202;28;20384;-77
2023/07/12 02:32:27;;;;;;;3.55;2.55;;;17.20;99.90;;;;;;5072342;28;20376;-77
2023/07/12 02:34:53;;;;;;;4.93;3.13;;;17.20;99.90;;;;;;5074903;28;20048;-77
2023/07/12 02:37:19;;;;;;;5.00;2.80;;;17.20;99.90;;;;;;5083900;28;20071;-78
2023/07/12 02:39:45;;;;;;;4.63;2.67;;;17.10;99.90;;;;;;5083676;28;20080;-77
2023/07/12 02:42:11;;;;;;;3.85;2.92;;;17.10;99.90;;;;;;5080084;28;20066;-79
2023/07/12 02:44:40;;;;;;;5.18;2.90;;;17.10;99.90;;;;;;5054569;28;20048;-76
2023/07/12 02:47:11;;;;;;;4.15;2.60;;;17.20;99.90;;;;;;5081216;28;20086;-77
2023/07/12 02:49:38;;;;;;;3.58;2.35;;;17.10;99.90;;;;;;5073429;28;20050;-76
2023/07/12 02:52:05;;;;;;;4.15;2.75;;;17.10;99.90;;;;;;5081009;28;20484;-77
2023/07/12 02:54:32;;;;;;;3.42;2.50;;;17.10;99.90;;;;;;5072707;28;20059;-76
2023/07/12 02:56:58;;;;;;;4.63;2.97;;;17.10;99.90;;;;;;5075578;28;20041;-76
2023/07/12 02:59:24;;;;;;;3.95;2.80;;;17.10;99.90;;;;;;5074187;28;20068;-78
2023/07/12 03:01:50;;;;;;;5.30;2.70;;;17.10;99.90;;;;;;5084229;28;20060;-79
2023/07/12 03:04:16;;;;;;;4.55;2.80;;;17.10;99.90;;;;;;5087521;28;20101;-78
2023/07/12 03:06:43;;;;;;;5.30;2.92;;;17.10;99.90;;;;;;5085046;28;20472;-80
2023/07/12 03:09:09;;;;;;;3.97;2.60;;;17.10;99.90;;;;;;5089290;28;20032;-79
2023/07/12 03:11:36;;;;;;;4.75;2.78;;;17.10;99.90;;;;;;5065598;28;20040;-78
2023/07/12 03:14:01;;;;;;;4.43;2.65;;;17.00;99.90;;;;;;5069726;28;20075;-80
2023/07/12 03:16:27;;;;;;;4.75;2.80;;;17.00;99.90;;;;;;5039473;28;20064;-78
2023/07/12 03:18:53;;;;;;;4.30;2.85;;;17.00;99.90;;;;;;5064322;28;20144;-78
2023/07/12 03:21:19;;;;;;;5.20;2.95;;;17.00;99.90;;;;;;5084339;28;20055;-79
2023/07/12 03:23:45;;;;;;;5.50;2.90;;;17.00;99.90;;;;;;5090809;28;20123;-79
2023/07/12 03:26:11;;;;;;;4.50;3.00;;;17.00;99.90;;;;;;5076572;28;20198;-78
2023/07/12 03:28:36;;;;;;;3.83;2.97;;;16.90;99.90;;;;;;5084839;28;20039;-79
2023/07/12 03:31:09;;;;;;;4.93;2.80;;;16.90;99.90;;;;;;5081110;28;20041;-78
2023/07/12 03:33:35;;;;;;;5.10;3.00;;;16.90;99.90;;;;;;5067002;28;20126;-77
2023/07/12 03:36:02;;;;;;;4.72;2.70;;;16.90;99.90;;;;;;5085372;28;20122;-81
2023/07/12 03:38:29;;;;;;;4.82;2.70;;;17.00;99.90;;;;;;5074842;28;20085;-78
2023/07/12 03:40:57;;;;;;;6.63;3.40;;;16.90;99.90;;;;;;5085070;28;20044;-78
2023/07/12 03:43:23;;;;;;;6.60;3.10;;;17.00;99.90;;;;;;5081961;28;20047;-81
2023/07/12 03:45:49;;;;;;;4.80;2.83;;;16.90;99.90;;;;;;5079101;28;20041;-78
2023/07/12 03:48:14;;;;;;;7.05;3.33;;;16.90;99.90;;;;;;5074270;28;20078;-77
2023/07/12 03:50:41;;;;;;;5.07;2.65;;;16.90;99.90;;;;;;5090218;28;20043;-78
2023/07/12 03:53:07;;;;;;;5.50;2.85;;;16.80;99.90;;;;;;5093887;28;20070;-78
2023/07/12 03:55:39;;;;;;;5.15;2.33;;;16.80;99.90;;;;;;5060575;28;20041;-78
2023/07/12 03:58:05;;;;;;;5.53;3.05;;;16.70;99.90;;;;;;5086299;28;20035;-75
2023/07/12 04:00:31;;;;;;;5.28;3.03;;;16.70;99.90;;;;;;5085511;28;20035;-75
2023/07/12 04:02:56;;;;;;;5.00;3.00;;;16.60;99.90;;;;;;5075857;28;20043;-77
2023/07/12 04:05:22;;;;;;;5.75;2.90;;;16.70;99.90;;;;;;5081868;28;20072;-75
2023/07/12 04:07:48;;;;;;;5.97;2.97;;;16.70;99.90;;;;;;5077118;28;20052;-77
2023/07/12 04:10:14;;;;;;;4.13;3.03;;;16.70;99.90;;;;;;5088718;28;20055;-78
2023/07/12 04:12:40;;;;;;;4.63;2.72;;;16.60;99.90;;;;;;5067124;28;20040;-76
2023/07/12 04:15:06;;;;;;;6.50;3.28;;;16.70;99.90;;;;;;5087410;28;20477;-78
2023/07/12 04:17:32;;;;;;;3.80;2.80;;;16.60;99.90;;;;;;5061801;28;20037;-79
2023/07/12 04:19:58;;;;;;;5.25;2.83;;;16.60;99.90;;;;;;5043759;28;20032;-77
2023/07/12 04:22:24;;;;;;;5.65;3.03;;;16.60;99.90;;;;;;5086722;28;20476;-80
2023/07/12 04:24:52;;;;;;;4.85;2.70;;;16.60;99.90;;;;;;5086993;28;20047;-78
2023/07/12 04:27:18;;;;;;;5.05;2.80;;;16.60;99.90;;;;;;5064096;28;20045;-80
2023/07/12 04:29:45;;;;;;;8.32;3.20;;;16.60;99.90;;;;;;5074274;28;20130;-76
2023/07/12 04:32:10;;;;;;;4.75;2.55;;;16.60;99.90;;;;;;5089871;28;20047;-78
2023/07/12 04:34:36;;;;;;;5.93;2.72;;;16.60;99.90;;;;;;5078202;28;20040;-78
2023/07/12 04:37:02;;;;;;;4.35;2.78;;;16.60;99.90;;;;;;5085216;28;20040;-79
2023/07/12 04:39:27;;;;;;;5.32;3.45;;;16.60;99.90;;;;;;5073986;28;20048;-78
2023/07/12 04:41:53;;;;;;;4.13;2.75;;;16.60;99.90;;;;;;5077499;28;20051;-80
2023/07/12 04:44:18;;;;;;;4.53;2.42;;;16.60;99.90;;;;;;5088002;28;20480;-80
2023/07/12 04:46:44;;;;;;;3.70;2.13;;;16.60;99.90;;;;;;5093184;28;20040;-79
2023/07/12 04:49:10;;;;;;;3.63;2.22;;;16.60;99.90;;;;;;5080148;28;20079;-78
2023/07/12 04:51:35;;;;;;;4.00;2.15;;;16.60;99.90;;;;;;5075193;28;20036;-79
2023/07/12 04:54:01;;;;;;;5.13;2.28;;;16.60;99.90;;;;;;5079254;28;20049;-76
2023/07/12 04:56:27;;;;;;;5.18;2.15;;;16.60;99.90;;;;;;5076826;28;20469;-78
2023/07/12 04:58:53;;;;;;;3.50;2.30;;;16.50;99.90;;;;;;5087307;28;20055;-79
2023/07/12 05:01:21;;;;;;;4.43;2.50;;;16.50;99.90;;;;;;5078153;28;20460;-80
2023/07/12 05:03:47;;;;;;;5.45;2.78;;;16.50;99.90;;;;;;5073850;28;20443;-80
2023/07/12 05:06:13;;;;;;;5.10;2.60;;;16.40;99.90;;;;;;5093472;28;20088;-78
2023/07/12 05:08:39;;;;;;;4.65;2.50;;;16.40;99.90;;;;;;5076212;28;20373;-82
2023/07/12 05:11:05;;;;;;;3.53;2.40;;;16.40;99.90;;;;;;5066782;28;20036;-79
2023/07/12 05:13:33;;;;;;;6.70;2.90;;;16.40;99.90;;;;;;5092269;28;20028;-77
2023/07/12 05:15:59;;;;;;;5.75;3.13;;;16.50;99.90;;;;;;5091380;28;20117;-79
2023/07/12 05:18:25;;;;;;;4.72;2.92;;;16.50;99.90;;;;;;5081323;28;20043;-79
2023/07/12 05:20:52;;;;;;;5.90;3.33;;;16.60;99.90;;;;;;5085403;28;20043;-79
2023/07/12 05:23:19;;;;;;;5.75;3.22;;;16.60;99.90;;;;;;5082868;28;21058;-78
2023/07/12 05:25:52;;;;;;;6.25;3.10;;;16.60;99.90;;;;;;5078220;28;20385;-78
2023/07/12 05:28:18;;;;;;;4.75;2.90;;;16.60;99.90;;;;;;5077450;28;20043;-77
2023/07/12 05:30:44;;;;;;;5.20;3.10;;;16.60;99.90;;;;;;5083622;28;20040;-78
2023/07/12 05:33:10;;;;;;;5.40;3.05;;;16.60;99.90;;;;;;5060603;28;20118;-80
2023/07/12 05:35:36;;;;;;;8.23;3.83;;;16.70;99.90;;;;;;5081867;28;20036;-78
2023/07/12 05:38:02;;;;;;;7.05;3.78;;;16.70;99.90;;;;;;5077242;28;20074;-79
2023/07/12 05:40:29;;;;;;;8.65;4.45;;;16.90;99.90;;;;;;5065719;28;20102;-80
2023/07/12 05:42:56;;;;;;;6.95;3.95;;;17.10;99.90;;;;;;5037666;28;20124;-79
2023/07/12 05:45:23;;;;;;;7.13;4.20;;;17.30;99.90;;;;;;5072539;28;20036;-77
2023/07/12 05:47:49;;;;;;;7.80;4.63;;;17.40;99.90;;;;;;5073055;28;20052;-76
2023/07/12 05:50:18;;;;;;;8.77;4.35;;;17.40;99.90;;;;;;5074787;28;20485;-81
2023/07/12 05:52:44;;;;;;;8.35;4.60;;;17.20;99.90;;;;;;5086470;28;20123;-80
2023/07/12 05:55:12;;;;;;;8.32;4.78;;;17.20;99.90;;;;;;5085837;28;20101;-78
2023/07/12 05:57:37;;;;;;;8.75;5.80;;;17.20;99.90;;;;;;5087160;28;20028;-77
2023/07/12 06:00:04;;;;;;;6.60;4.78;;;17.20;99.90;;;;;;5091117;28;20093;-79
2023/07/12 06:02:31;;;;;;;6.88;4.70;;;17.20;99.90;;;;;;5091720;28;20032;-80
2023/07/12 06:04:57;;;;;;;9.50;4.75;;;17.20;99.90;;;;;;5071843;28;20040;-80
2023/07/12 06:07:23;;;;;;;8.35;5.15;;;17.20;99.90;;;;;;5076705;28;20032;-77
2023/07/12 06:09:48;;;;;;;7.13;5.15;;;17.30;99.90;;;;;;5074440;28;20044;-76
2023/07/12 06:12:14;;;;;;;8.05;5.10;;;17.30;99.90;;;;;;5082233;28;20035;-79
2023/07/12 06:14:40;;;;;;;8.95;5.32;;;17.30;99.90;;;;;;5078099;28;20036;-77
2023/07/12 06:17:06;;;;;;;9.52;5.80;;;17.30;99.90;;;;;;5061184;28;20055;-76
2023/07/12 06:19:32;;;;;;;8.00;5.65;;;17.30;99.90;;;;;;5066678;28;20105;-68
2023/07/12 06:21:58;;;;;;;9.77;5.57;;;17.40;99.90;;;;;;5080748;28;20342;-67
2023/07/12 06:24:24;;;;;;;8.13;5.50;;;17.40;99.90;;;;;;5087507;28;20046;-66
2023/07/12 06:26:49;;;;;;;8.43;4.97;;;17.40;99.90;;;;;;5085224;28;20133;-66
2023/07/12 06:29:15;;;;;;;8.45;5.00;;;17.50;99.90;;;;;;5081033;28;20377;-68
2023/07/12 06:31:44;;;;;;;9.00;5.32;;;17.50;99.90;;;;;;5085002;28;20042;-66
2023/07/12 06:34:10;;;;;;;8.35;5.82;;;17.50;99.90;;;;;;5089537;28;20127;-66
2023/07/12 06:36:36;;;;;;;11.70;6.00;;;17.60;99.90;;;;;;5071764;28;20115;-67
2023/07/12 06:39:03;;;;;;;9.27;5.65;;;17.70;99.90;;;;;;5082697;28;20116;-66
2023/07/12 06:41:30;;;;;;;8.52;5.32;;;17.90;99.90;;;;;;5091978;28;20040;-66
2023/07/12 06:43:56;;;;;;;8.35;5.82;;;17.90;99.90;;;;;;5088343;28;20050;-66
2023/07/12 06:46:22;;;;;;;7.90;5.72;;;17.90;99.90;;;;;;5080405;28;20044;-66
2023/07/12 06:48:48;;;;;;;9.77;5.95;;;17.80;99.90;;;;;;5077230;28;20464;-67
2023/07/12 06:51:14;;;;;;;9.30;5.78;;;17.70;99.90;;;;;;5076615;28;20411;-66
2023/07/12 06:53:40;;;;;;;8.25;6.00;;;17.60;99.90;;;;;;5072815;28;20436;-67
2023/07/12 06:56:05;;;;;;;8.35;5.63;;;17.60;99.90;;;;;;5074927;28;20090;-67
2023/07/12 06:58:31;;;;;;;8.70;5.60;;;17.60;99.90;;;;;;5092673;28;20493;-66
2023/07/12 07:00:57;;;;;;;9.98;6.45;;;17.70;99.90;;;;;;5083589;28;20037;-67
2023/07/12 07:03:23;;;;;;;9.55;5.45;;;17.90;99.90;;;;;;5071036;28;20124;-66
2023/07/12 07:05:48;;;;;;;8.80;5.93;;;18.10;99.90;;;;;;5072415;28;20076;-67
2023/07/12 07:08:16;;;;;;;8.32;5.88;;;18.30;99.90;;;;;;5072431;28;20047;-66
2023/07/12 07:10:43;;;;;;;9.18;5.80;;;18.30;99.90;;;;;;5072398;28;20037;-66
2023/07/12 07:13:10;;;;;;;7.63;5.70;;;18.40;99.90;;;;;;5067033;28;20064;-66
2023/07/12 07:15:36;;;;;;;6.13;5.22;;;18.40;99.90;;;;;;5070375;28;20044;-66
2023/07/12 07:18:01;;;;;;;8.77;5.15;;;18.40;99.90;;;;;;5085302;28;20040;-65
2023/07/12 07:20:28;;;;;;;8.23;5.03;;;18.30;99.90;;;;;;5072445;28;20033;-66
2023/07/12 07:22:54;;;;;;;8.07;5.28;;;18.20;99.90;;;;;;5076205;28;20048;-66
2023/07/12 07:25:19;;;;;;;8.75;5.03;;;18.20;99.90;;;;;;5075831;28;20404;-66
2023/07/12 07:27:46;;;;;;;6.30;4.72;;;18.10;99.90;;;;;;5070696;28;20060;-67
2023/07/12 07:30:13;;;;;;;6.80;5.25;;;18.10;99.90;;;;;;5070751;28;20067;-66
2023/07/12 07:32:39;;;;;;;8.30;5.50;;;18.20;99.90;;;;;;5068762;28;20127;-66
2023/07/12 07:35:06;;;;;;;8.45;5.90;;;18.10;99.90;;;;;;5059981;28;20040;-66
2023/07/12 07:37:32;;;;;;;6.32;5.28;;;18.10;99.90;;;;;;5072935;28;20036;-65
2023/07/12 07:39:57;;;;;;;7.65;5.20;;;18.00;99.90;;;;;;5074953;28;20056;-65
2023/07/12 07:42:23;;;;;;;7.63;4.97;;;18.10;99.90;;;;;;5062129;28;20047;-66
2023/07/12 07:44:49;;;;;;;7.45;4.75;;;18.20;99.90;;;;;;5075223;28;20067;-66
2023/07/12 07:47:15;;;;;;;7.22;4.53;;;18.40;99.90;;;;;;5070989;28;20044;-66
2023/07/12 07:49:41;;;;;;;8.20;5.05;;;18.40;99.90;;;;;;5066465;28;20066;-65
2023/07/12 07:52:07;;;;;;;7.47;4.57;;;18.50;99.90;;;;;;5067593;28;20040;-66
2023/07/12 07:54:33;;;;;;;7.93;4.63;;;18.60;99.90;;;;;;5064327;28;20059;-66
2023/07/12 07:56:59;;;;;;;7.60;4.07;;;18.70;99.90;;;;;;5059427;28;20519;-65
2023/07/12 07:59:24;;;;;;;6.18;4.88;;;18.90;99.90;;;;;;5070900;28;20041;-66
2023/07/12 08:01:50;;;;;;;6.25;4.55;;;18.90;99.90;;;;;;5063759;28;20396;-66
2023/07/12 08:04:16;;;;;;;5.78;4.65;;;18.90;99.90;;;;;;5054298;28;20044;-66
2023/07/12 08:06:41;;;;;;;6.28;4.95;;;18.90;99.90;;;;;;5060147;28;20477;-66
2023/07/12 08:09:07;;;;;;;6.90;3.72;;;19.00;99.90;;;;;;5073665;28;20040;-66
2023/07/12 08:11:33;;;;;;;6.40;4.20;;;19.10;99.90;;;;;;5074622;28;20105;-66
2023/07/12 08:13:59;;;;;;;6.13;4.28;;;19.20;99.90;;;;;;5070286;28;20178;-66
2023/07/12 08:16:29;;;;;;;5.65;4.45;;;19.20;99.90;;;;;;5062310;28;20119;-66
2023/07/12 08:18:55;;;;;;;5.80;4.00;;;19.40;99.90;;;;;;5057564;28;20086;-66
2023/07/12 08:21:21;;;;;;;6.05;3.83;;;19.40;99.90;;;;;;5067710;28;20059;-66
2023/07/12 08:23:47;;;;;;;9.38;4.32;;;19.40;99.90;;;;;;5068601;28;20052;-65
2023/07/12 08:26:15;;;;;;;6.20;4.47;;;19.50;99.90;;;;;;5062280;28;20048;-66
2023/07/12 08:28:40;;;;;;;7.50;4.25;;;19.60;99.90;;;;;;5059920;28;20032;-66
2023/07/12 08:31:06;;;;;;;6.05;4.00;;;19.40;99.90;;;;;;5065750;28;20148;-65
2023/07/12 08:33:32;;;;;;;8.13;5.10;;;19.40;99.90;;;;;;5073315;28;20480;-66
2023/07/12 08:35:57;;;;;;;6.28;3.45;;;19.40;99.90;;;;;;5066031;28;20102;-66
2023/07/12 08:38:24;;;;;;;6.10;4.10;;;19.50;99.90;;;;;;5073139;28;20055;-66
2023/07/12 08:40:51;;;;;;;5.50;4.35;;;19.50;99.90;;;;;;5069898;28;20373;-66
2023/07/12 08:43:37;;;;;;;6.97;4.43;;;19.40;99.90;;;;;;5057181;28;20044;-66
2023/07/12 08:46:14;;;;;;;8.30;4.97;;;19.40;99.90;;;;;;5065505;28;20055;-66
2023/07/12 08:48:40;;;;;;;7.28;4.43;;;19.30;99.90;;;;;;5055786;28;20033;-66
2023/07/12 08:51:22;;;;;;;6.88;4.43;;;19.40;99.90;;;;;;5062182;28;20052;-66
2023/07/12 08:53:48;;;;;;;7.18;4.50;;;19.80;99.90;;;;;;5066143;28;20045;-66
2023/07/12 08:56:15;;;;;;;6.57;4.10;;;20.10;99.90;;;;;;5087565;28;20060;-66
2023/07/12 08:58:50;;;;;;;6.10;4.03;;;19.90;99.90;;;;;;5061731;28;20481;-66
2023/07/12 09:01:39;;;;;;;7.15;4.25;;;19.70;99.90;;;;;;5060375;28;20368;-65
2023/07/12 09:04:34;;;;;;;9.65;3.53;;;19.60;99.90;;;;;;5060542;28;20045;-66
2023/07/12 09:07:02;;;;;;;6.10;4.00;;;19.50;99.90;;;;;;5057555;28;20551;-67
2023/07/12 09:09:32;;;;;;;5.82;4.10;;;19.50;99.90;;;;;;5054270;28;20111;-67
2023/07/12 09:12:00;;;;;;;7.18;4.50;;;19.50;99.90;;;;;;5053564;28;20051;-66
2023/07/12 09:14:26;;;;;;;6.15;4.43;;;19.50;99.90;;;;;;5059657;28;20040;-66
2023/07/12 09:16:57;;;;;;;7.80;4.78;;;19.90;99.90;;;;;;5053456;28;20080;-66
2023/07/12 09:19:27;;;;;;;7.20;4.30;;;20.10;99.90;;;;;;5055089;28;20075;-65
2023/07/12 09:21:58;;;;;;;8.40;4.13;;;20.40;99.90;;;;;;5060604;28;20182;-65
2023/07/12 09:24:30;;;;;;;7.57;4.18;;;20.40;99.90;;;;;;5068191;28;20465;-66
2023/07/12 09:27:11;;;;;;;7.05;4.30;;;20.20;99.90;;;;;;5066495;28;20032;-65
2023/07/12 09:29:37;;;;;;;7.13;4.18;;;20.00;99.90;;;;;;5051988;28;20045;-66
2023/07/12 09:32:19;;;;;;;7.20;4.10;;;19.80;99.90;;;;;;5058920;28;20094;-64
2023/07/12 09:34:47;;;;;;;5.80;3.90;;;19.70;99.90;;;;;;5066214;28;20045;-65
2023/07/12 09:37:16;;;;;;;7.85;4.38;;;19.50;99.90;;;;;;5060954;28;20115;-65
2023/07/12 09:39:55;;;;;;;6.72;4.22;;;19.70;99.90;;;;;;5071652;28;20044;-65
2023/07/12 09:42:21;;;;;;;4.88;3.97;;;19.80;99.90;;;;;;5068491;28;20037;-66
2023/07/12 09:44:48;;;;;;;6.57;4.13;;;19.90;99.90;;;;;;5052713;28;20041;-65
2023/07/12 09:47:34;;;;;;;6.35;4.22;;;19.90;99.90;;;;;;5066841;28;20487;-65
2023/07/12 09:50:19;;;;;;;7.65;4.43;;;19.80;99.90;;;;;;5062983;28;20083;-65
2023/07/12 09:52:53;;;;;;;9.23;4.30;;;19.70;99.90;;;;;;5085253;28;20424;-65
2023/07/12 09:55:26;;;;;;;4.68;3.38;;;19.70;99.90;;;;;;5063986;28;20052;-67
2023/07/12 09:58:11;;;;;;;5.85;4.13;;;19.80;99.90;;;;;;5063961;28;20366;-65
2023/07/12 10:01:29;;;;;;;5.20;4.40;;;20.00;99.90;;;;;;5059512;28;20044;-65
2023/07/12 10:03:59;;;;;;;5.10;3.83;;;20.30;99.90;;;;;;5057367;28;20140;-64
2023/07/12 10:06:35;;;;;;;7.20;4.50;;;20.50;99.90;;;;;;5052437;28;20084;-64
2023/07/12 10:09:12;;;;;;;5.80;4.00;;;20.80;99.90;;;;;;5079936;28;20055;-65
2023/07/12 10:12:08;;;;;;;6.32;4.15;;;20.80;99.90;;;;;;5080048;28;20047;-65
2023/07/12 10:14:43;;;;;;;5.97;3.70;;;20.50;99.90;;;;;;5045097;28;20437;-65
2023/07/12 10:17:23;;;;;;;5.27;3.67;;;20.00;99.90;;;;;;5069307;28;20376;-65
2023/07/12 10:19:53;;;;;;;6.68;3.78;;;19.70;99.90;;;;;;5063745;28;20037;-65
2023/07/12 10:22:33;;;;;;;5.05;3.50;;;19.40;99.90;;;;;;5052729;28;20037;-65
2023/07/12 10:25:01;;;;;;;6.72;4.47;;;19.20;99.90;;;;;;5070019;28;20088;-65
2023/07/12 10:27:32;;;;;;;6.10;3.45;;;19.40;99.90;;;;;;5053968;28;20117;-66
2023/07/12 10:30:14;;;;;;;5.13;3.50;;;19.70;99.90;;;;;;5054659;28;20461;-66
2023/07/12 10:32:45;;;;;;;6.07;3.90;;;19.80;99.90;;;;;;5064453;28;20084;-65
2023/07/12 10:35:35;;;;;;;6.90;3.97;;;20.10;99.90;;;;;;5059271;28;20045;-65
2023/07/12 10:38:05;;;;;;;6.75;4.00;;;20.40;99.90;;;;;;5064495;28;20376;-65
2023/07/12 10:40:36;;;;;;;5.05;3.70;;;20.50;99.90;;;;;;5059760;28;20063;-64
2023/07/12 10:43:28;;;;;;;5.10;3.30;;;20.80;99.90;;;;;;5051772;28;20052;-64
2023/07/12 10:45:59;;;;;;;4.30;2.80;;;21.00;99.90;;;;;;5051627;28;20040;-64
2023/07/12 10:48:28;;;;;;;6.43;2.92;;;21.20;99.90;;;;;;5052761;28;20036;-64
2023/07/12 10:51:11;;;;;;;4.57;2.85;;;21.00;99.90;;;;;;5051283;28;20481;-64
2023/07/12 10:53:51;;;;;;;5.10;2.38;;;20.80;99.90;;;;;;5052306;28;20047;-66
2023/07/12 10:56:23;;;;;;;5.35;2.35;;;20.60;99.90;;;;;;5051993;28;20037;-65
2023/07/12 10:58:54;;;;;;;4.97;2.60;;;20.60;99.90;;;;;;5064343;28;20090;-65
2023/07/12 11:01:52;;;;;;;6.05;2.50;;;20.60;99.90;;;;;;5053870;28;20045;-65
2023/07/12 11:04:30;;;;;;;5.95;3.45;;;20.90;99.90;;;;;;5084335;28;20106;-65
2023/07/12 11:07:01;;;;;;;7.85;3.17;;;21.00;99.90;;;;;;5052092;28;20028;-66
2023/07/12 11:09:49;;;;;;;5.13;3.33;;;20.80;99.90;;;;;;5052346;28;20044;-65
2023/07/12 11:12:28;;;;;;;4.30;3.28;;;20.70;99.90;;;;;;5060450;28;20443;-65
2023/07/12 11:15:24;;;;;;;6.47;3.58;;;20.50;99.90;;;;;;5064301;28;20094;-65
2023/07/12 11:18:03;;;;;;;;;;;20.10;99.90;;;;;;5063379;28;20477;-65
2023/07/12 11:20:35;;;;;;;7.55;3.65;;;19.80;99.90;;;;;;5059291;28;19917;-65
2023/07/12 11:23:26;;;;;;;5.43;3.55;;;19.60;99.90;;;;;;5073301;28;20139;-64
2023/07/12 11:25:57;;;;;;;6.90;3.70;;;19.60;99.90;;;;;;5068019;28;20045;-67
2023/07/12 11:28:23;;;;;;;4.30;3.25;;;19.70;99.90;;;;;;5070839;28;20036;-65
2023/07/12 11:31:26;;;;;;;5.60;3.20;;;20.10;99.90;;;;;;5071967;28;20043;-65
2023/07/12 11:34:15;;;;;;;6.82;3.15;;;20.70;99.90;;;;;;5064685;28;20128;-66
2023/07/12 11:36:43;;;;;;;4.75;2.80;;;21.20;99.90;;;;;;5063369;28;20378;-66
2023/07/12 11:39:18;;;;;;;5.30;3.00;;;21.20;99.90;;;;;;5075073;28;20044;-66
2023/07/12 11:41:55;;;;;;;5.95;2.85;;;21.50;99.90;;;;;;5070526;28;20045;-67
2023/07/12 11:44:21;;;;;;;5.88;2.53;;;21.80;99.90;;;;;;5055338;28;20544;-66
2023/07/12 11:46:50;;;;;;;5.47;2.70;;;21.80;99.90;;;;;;5054798;28;20094;-66
2023/07/12 11:49:25;;;;;;;3.80;2.60;;;21.90;99.90;;;;;;5053779;28;20040;-66
2023/07/12 11:51:55;;;;;;;4.20;2.03;;;22.00;99.90;;;;;;5055117;28;20047;-66
2023/07/12 11:54:37;;;;;;;4.40;2.40;;;22.00;99.90;;;;;;5054708;28;20044;-66
2023/07/12 11:57:08;;;;;;;4.82;2.20;;;22.20;99.90;;;;;;5067014;28;20045;-65
2023/07/12 11:59:39;;;;;;;5.60;2.40;;;22.30;99.90;;;;;;5062841;28;20542;-66
2023/07/12 12:02:14;;;;;;;4.88;2.15;;;22.50;99.90;;;;;;5068728;28;20049;-66
2023/07/12 12:04:40;;;;;;;4.43;2.20;;;22.60;99.90;;;;;;5057683;28;20041;-66
2023/07/12 12:07:25;;;;;;;3.33;1.88;;;22.60;99.90;;;;;;5063921;28;20385;-66
2023/07/12 12:09:52;;;;;;;3.97;1.70;;;22.50;99.90;;;;;;5075229;28;20080;-65
2023/07/12 12:12:24;;;;;;;5.10;2.03;;;22.40;99.90;;;;;;5062468;28;20103;-66
2023/07/12 12:14:51;;;;;;;2.50;1.52;;;22.20;99.90;;;;;;5068084;28;20078;-66
2023/07/12 12:17:30;;;;;;;3.95;1.73;;;22.00;99.90;;;;;;5072664;28;20044;-65
2023/07/12 12:20:19;;;;;;;3.65;1.70;;;21.80;99.90;;;;;;5066712;28;20029;-66
2023/07/12 12:22:53;;;;;;;4.57;1.67;;;21.50;99.90;;;;;;5064548;28;20067;-65
2023/07/12 12:25:22;;;;;;;3.80;1.75;;;21.40;99.90;;;;;;5060803;28;20123;-66
2023/07/12 12:27:48;;;;;;;2.55;1.60;;;21.30;99.90;;;;;;5058607;28;20064;-66
2023/07/12 12:30:33;;;;;;;2.70;1.50;;;21.50;99.90;;;;;;5054228;28;20424;-66
2023/07/12 12:33:05;;;;;;;3.63;1.40;;;21.80;99.90;;;;;;5053556;28;20122;-66
2023/07/12 12:35:31;;;;;;;4.20;1.35;;;22.20;99.90;;;;;;5068767;28;20041;-66
2023/07/12 12:38:02;;;;;;;1.85;1.25;;;22.40;99.90;;;;;;5072946;28;20087;-66
2023/07/12 12:40:28;;;;;;;1.73;1.15;;;22.20;99.90;;;;;;5071149;28;20482;-67
2023/07/12 12:43:02;;;;;;;4.13;1.33;;;22.20;99.90;;;;;;5054242;28;20051;-66
2023/07/12 12:45:36;;;;;;;2.50;1.20;;;22.60;99.90;;;;;;5065420;28;20052;-66
2023/07/12 12:48:05;;;;;;;2.72;1.30;;;22.80;99.90;;;;;;5056973;28;20032;-66
2023/07/12 12:50:30;;;;;;;2.90;0.95;;;23.10;99.90;;;;;;5071769;28;20132;-67
2023/07/12 12:53:01;;;;;;;3.15;1.00;;;23.30;99.90;;;;;;5057357;28;20067;-66
2023/07/12 12:55:27;;;;;;;1.67;1.08;;;23.30;99.90;;;;;;5066586;28;20037;-65
2023/07/12 12:57:55;;;;;;;2.45;1.20;;;23.30;99.90;;;;;;5060501;28;20350;-66
2023/07/12 13:00:22;;;;;;;2.38;1.20;;;22.90;99.90;;;;;;5072584;28;20056;-67